createdAt,value
2018-07-25T00:02:03.149Z,99.90
2018-07-25T00:04:30.509Z,99.90
2018-07-25T00:06:57.922Z,99.90
2018-07-25T00:09:25.322Z,99.90
2018-07-25T00:11:52.851Z,99.90
2018-07-25T00:14:20.414Z,99.90
2018-07-25T00:16:47.866Z,99.90
2018-07-25T00:19:15.271Z,99.90
2018-07-25T00:21:42.648Z,99.90
2018-07-25T00:24:10.101Z,99.90
2018-07-25T00:26:37.531Z,99.90
2018-07-25T00:29:05.000Z,99.90
2018-07-25T00:31:32.382Z,99.90
2018-07-25T00:33:59.764Z,99.90
2018-07-25T00:36:27.203Z,99.90
2018-07-25T00:38:54.652Z,99.90
2018-07-25T00:41:22.325Z,99.90
2018-07-25T00:43:49.722Z,99.90
2018-07-25T00:46:17.199Z,99.90
2018-07-25T00:48:44.741Z,99.90
2018-07-25T00:51:12.134Z,99.90
2018-07-25T00:53:39.539Z,99.90
2018-07-25T00:56:06.985Z,99.90
2018-07-25T00:58:34.446Z,99.90
2018-07-25T01:01:01.890Z,99.90
2018-07-25T01:03:29.266Z,99.90
2018-07-25T01:05:56.659Z,99.90
2018-07-25T01:10:51.682Z,99.90
2018-07-25T01:13:19.021Z,99.90
2018-07-25T01:15:46.427Z,99.90
2018-07-25T01:18:13.917Z,99.90
2018-07-25T01:20:41.401Z,99.90
2018-07-25T01:23:08.838Z,99.90
2018-07-25T01:25:36.266Z,99.90
2018-07-25T01:28:03.649Z,99.90
2018-07-25T01:30:31.138Z,99.90
2018-07-25T01:32:58.621Z,99.90
2018-07-25T01:35:26.044Z,99.90
2018-07-25T01:37:53.401Z,99.90
2018-07-25T01:40:20.942Z,99.90
2018-07-25T01:42:48.258Z,99.90
2018-07-25T01:45:15.730Z,99.90
2018-07-25T01:47:43.089Z,99.90
2018-07-25T01:50:10.578Z,99.90
2018-07-25T01:52:38.017Z,99.90
2018-07-25T01:55:06.150Z,99.90
2018-07-25T01:57:33.550Z,99.90
2018-07-25T02:00:00.929Z,99.90
2018-07-25T02:02:28.409Z,99.90
2018-07-25T02:04:55.770Z,99.90
2018-07-25T02:07:23.525Z,99.90
2018-07-25T02:09:50.950Z,99.90
2018-07-25T02:12:18.282Z,99.90
2018-07-25T02:14:45.664Z,99.90
2018-07-25T02:17:13.043Z,99.90
2018-07-25T02:19:40.402Z,99.90
2018-07-25T02:22:07.906Z,99.90
2018-07-25T02:24:35.254Z,99.90
2018-07-25T02:27:02.638Z,99.90
2018-07-25T02:29:29.982Z,99.90
2018-07-25T02:31:57.370Z,99.90
2018-07-25T02:36:52.449Z,99.90
2018-07-25T02:39:19.840Z,99.90
2018-07-25T02:41:47.297Z,99.90
2018-07-25T02:44:14.796Z,99.90
2018-07-25T02:46:42.174Z,99.90
2018-07-25T02:49:09.912Z,99.90
2018-07-25T02:51:37.470Z,99.90
2018-07-25T02:54:05.384Z,99.90
2018-07-25T02:56:33.117Z,99.90
2018-07-25T02:59:00.765Z,99.90
2018-07-25T03:01:28.114Z,99.90
2018-07-25T03:03:55.466Z,99.90
2018-07-25T03:06:22.797Z,99.90
2018-07-25T03:08:50.238Z,99.90
2018-07-25T03:11:17.784Z,99.90
2018-07-25T03:13:45.214Z,99.90
2018-07-25T03:16:12.530Z,99.90
2018-07-25T03:18:39.831Z,99.90
2018-07-25T03:21:07.201Z,99.90
2018-07-25T03:23:35.849Z,99.90
2018-07-25T03:26:03.300Z,99.90
2018-07-25T03:28:30.981Z,99.90
2018-07-25T03:30:58.925Z,99.90
2018-07-25T03:33:26.625Z,99.90
2018-07-25T03:35:55.119Z,99.90
2018-07-25T03:38:22.486Z,99.90
2018-07-25T03:40:50.705Z,99.90
2018-07-25T03:43:18.174Z,99.90
2018-07-25T03:45:45.878Z,99.90
2018-07-25T03:48:13.258Z,99.90
2018-07-25T03:50:40.754Z,99.90
2018-07-25T03:53:08.565Z,99.90
2018-07-25T03:55:35.934Z,99.90
2018-07-25T03:58:03.369Z,99.90
2018-07-25T04:00:30.753Z,99.90
2018-07-25T04:02:58.142Z,99.90
2018-07-25T04:05:25.950Z,99.90
2018-07-25T04:07:53.409Z,99.90
2018-07-25T04:10:20.854Z,99.90
2018-07-25T04:12:48.261Z,99.90
2018-07-25T04:15:15.861Z,99.90
2018-07-25T04:17:44.446Z,99.90
2018-07-25T04:20:13.229Z,99.90
2018-07-25T04:22:40.724Z,99.90
2018-07-25T04:25:08.775Z,99.90
2018-07-25T04:27:36.506Z,99.90
2018-07-25T04:30:05.062Z,99.90
2018-07-25T04:32:32.429Z,99.90
2018-07-25T04:34:59.777Z,99.90
2018-07-25T04:37:27.775Z,99.90
2018-07-25T04:39:56.335Z,99.90
2018-07-25T04:42:23.834Z,99.90
2018-07-25T04:44:51.157Z,99.90
2018-07-25T04:47:18.649Z,99.90
2018-07-25T04:49:46.418Z,99.90
2018-07-25T04:52:14.182Z,99.90
2018-07-25T04:54:41.600Z,99.90
2018-07-25T04:57:08.962Z,99.90
2018-07-25T04:59:36.410Z,99.90
2018-07-25T05:02:03.760Z,99.90
2018-07-25T05:04:31.079Z,99.90
2018-07-25T05:07:02.802Z,99.90
2018-07-25T05:09:30.146Z,99.90
2018-07-25T05:11:57.569Z,99.90
2018-07-25T05:14:25.086Z,99.90
2018-07-25T05:16:52.829Z,99.90
2018-07-25T05:19:20.218Z,99.90
2018-07-25T05:21:47.580Z,99.90
2018-07-25T05:24:15.113Z,99.90
2018-07-25T05:26:42.845Z,99.90
2018-07-25T05:29:10.286Z,99.90
2018-07-25T05:31:37.689Z,99.90
2018-07-25T05:34:05.217Z,99.90
2018-07-25T05:36:36.368Z,99.90
2018-07-25T05:39:06.799Z,99.90
2018-07-25T05:41:34.121Z,99.90
2018-07-25T05:44:01.610Z,99.90
2018-07-25T05:46:29.258Z,99.90
2018-07-25T05:48:56.626Z,99.90
2018-07-25T05:51:23.982Z,99.90
2018-07-25T05:53:51.465Z,99.90
2018-07-25T05:56:18.870Z,99.90
2018-07-25T05:58:46.361Z,99.90
2018-07-25T06:01:13.793Z,99.90
2018-07-25T06:03:41.150Z,99.90
2018-07-25T06:06:08.681Z,99.90
2018-07-25T06:08:36.520Z,99.90
2018-07-25T06:11:04.168Z,99.90
2018-07-25T06:13:31.509Z,99.90
2018-07-25T06:15:59.045Z,99.90
2018-07-25T06:18:26.428Z,99.90
2018-07-25T06:20:53.915Z,99.90
2018-07-25T06:23:21.255Z,99.90
2018-07-25T06:25:48.723Z,99.90
2018-07-25T06:28:16.218Z,99.90
2018-07-25T06:30:43.649Z,99.90
2018-07-25T06:33:11.171Z,99.90
2018-07-25T06:35:38.498Z,99.90
2018-07-25T06:38:06.299Z,99.90
2018-07-25T06:40:33.791Z,99.90
2018-07-25T06:43:01.267Z,99.90
2018-07-25T06:45:28.737Z,99.90
2018-07-25T06:47:56.145Z,99.90
2018-07-25T06:50:23.740Z,99.90
2018-07-25T06:52:51.320Z,99.90
2018-07-25T06:55:18.738Z,99.90
2018-07-25T06:57:46.067Z,99.90
2018-07-25T07:00:13.531Z,99.90
2018-07-25T07:02:40.900Z,99.90
2018-07-25T07:05:08.265Z,99.90
2018-07-25T07:07:35.689Z,99.90
2018-07-25T07:10:03.634Z,99.90
2018-07-25T07:12:31.091Z,99.90
2018-07-25T07:14:58.497Z,99.90
2018-07-25T07:17:25.902Z,99.90
2018-07-25T07:19:53.295Z,99.90
2018-07-25T07:22:20.762Z,99.90
2018-07-25T07:24:48.170Z,99.90
2018-07-25T07:27:15.525Z,99.90
2018-07-25T07:29:42.859Z,99.90
2018-07-25T07:32:10.230Z,99.90
2018-07-25T07:34:37.647Z,99.90
2018-07-25T07:37:05.096Z,99.90
2018-07-25T07:39:32.457Z,99.90
2018-07-25T07:41:59.814Z,99.90
2018-07-25T07:44:27.178Z,99.90
2018-07-25T07:46:54.882Z,99.90
2018-07-25T07:49:22.402Z,99.90
2018-07-25T07:51:49.784Z,99.90
2018-07-25T07:54:17.220Z,99.40
2018-07-25T07:56:44.760Z,99.60
2018-07-25T07:59:12.158Z,99.20
2018-07-25T08:01:39.603Z,99.30
2018-07-25T08:04:07.399Z,99.80
2018-07-25T08:06:34.797Z,98.90
2018-07-25T08:09:02.317Z,99.90
2018-07-25T08:11:29.979Z,99.30
2018-07-25T08:13:57.343Z,99.20
2018-07-25T08:16:28.750Z,98.80
2018-07-25T08:18:56.112Z,98.10
2018-07-25T08:21:23.425Z,98.30
2018-07-25T08:23:50.797Z,98.40
2018-07-25T08:26:18.282Z,96.70
2018-07-25T08:28:45.705Z,96.90
2018-07-25T08:31:14.054Z,97.30
2018-07-25T08:33:41.417Z,97.90
2018-07-25T08:36:08.773Z,97.10
2018-07-25T08:38:39.417Z,96.20
2018-07-25T08:41:06.957Z,98.00
2018-07-25T08:43:35.959Z,97.50
2018-07-25T08:46:03.514Z,96.70
2018-07-25T08:48:30.893Z,96.00
2018-07-25T08:50:58.264Z,96.70
2018-07-25T08:53:26.101Z,96.80
2018-07-25T08:55:53.513Z,96.50
2018-07-25T09:00:48.590Z,94.60
2018-07-25T09:03:15.953Z,96.30
2018-07-25T09:05:43.384Z,95.90
2018-07-25T09:08:11.106Z,95.30
2018-07-25T09:10:38.717Z,95.80
2018-07-25T09:13:06.353Z,95.70
2018-07-25T09:15:33.684Z,93.60
2018-07-25T09:18:01.085Z,94.50
2018-07-25T09:20:28.655Z,93.90
2018-07-25T09:22:56.155Z,94.80
2018-07-25T09:25:23.643Z,95.10
2018-07-25T09:27:51.126Z,95.10
2018-07-25T09:30:19.307Z,94.70
2018-07-25T09:32:47.286Z,95.10
2018-07-25T09:35:14.811Z,94.70
2018-07-25T09:37:42.157Z,93.50
2018-07-25T09:40:09.693Z,94.00
2018-07-25T09:42:37.214Z,93.50
2018-07-25T09:45:05.787Z,91.10
2018-07-25T09:47:33.155Z,94.60
2018-07-25T09:50:00.639Z,91.00
2018-07-25T09:52:28.194Z,91.60
2018-07-25T09:55:00.072Z,93.10
2018-07-25T09:57:27.521Z,92.20
2018-07-25T09:59:54.886Z,93.10
2018-07-25T10:02:22.270Z,92.00
2018-07-25T10:04:49.694Z,93.80
2018-07-25T10:07:17.194Z,93.60
2018-07-25T10:09:44.640Z,93.70
2018-07-25T10:12:11.999Z,93.50
2018-07-25T10:14:39.335Z,91.40
2018-07-25T10:17:07.111Z,93.10
2018-07-25T10:19:34.681Z,90.90
2018-07-25T10:22:02.385Z,91.50
2018-07-25T10:24:29.921Z,91.50
2018-07-25T10:26:57.390Z,92.60
2018-07-25T10:31:53.569Z,90.10
2018-07-25T10:34:21.117Z,92.70
2018-07-25T10:36:48.581Z,91.60
2018-07-25T10:39:16.098Z,92.20
2018-07-25T10:41:43.503Z,90.70
2018-07-25T10:44:10.954Z,90.70
2018-07-25T10:46:38.351Z,90.60
2018-07-25T10:49:05.840Z,91.70
2018-07-25T10:51:33.392Z,90.10
2018-07-25T10:54:00.737Z,88.80
2018-07-25T10:56:28.106Z,87.50
2018-07-25T10:58:55.458Z,90.00
2018-07-25T11:01:22.924Z,90.40
2018-07-25T11:03:50.389Z,87.90
2018-07-25T11:06:17.849Z,90.10
2018-07-25T11:08:45.214Z,87.70
2018-07-25T11:13:40.118Z,87.80
2018-07-25T11:16:07.545Z,87.80
2018-07-25T11:18:35.677Z,91.00
2018-07-25T11:21:03.193Z,88.70
2018-07-25T11:23:30.785Z,85.60
2018-07-25T11:25:58.204Z,87.90
2018-07-25T11:28:25.925Z,87.00
2018-07-25T11:30:53.462Z,88.50
2018-07-25T11:33:21.169Z,89.00
2018-07-25T11:35:49.879Z,88.90
2018-07-25T11:38:17.360Z,86.70
2018-07-25T11:40:44.726Z,85.00
2018-07-25T11:43:12.193Z,87.30
2018-07-25T11:45:39.676Z,87.00
2018-07-25T11:48:07.049Z,87.40
2018-07-25T11:50:34.404Z,83.70
2018-07-25T11:53:01.813Z,84.30
2018-07-25T11:55:29.433Z,87.40
2018-07-25T11:57:56.918Z,89.50
2018-07-25T12:00:24.359Z,87.90
2018-07-25T12:02:51.811Z,87.00
2018-07-25T12:05:19.319Z,87.70
2018-07-25T12:07:46.673Z,86.80
2018-07-25T12:10:14.106Z,86.40
2018-07-25T12:12:41.462Z,85.80
2018-07-25T12:15:09.335Z,89.30
2018-07-25T12:17:37.411Z,90.00
2018-07-25T12:20:05.120Z,91.70
2018-07-25T12:22:32.496Z,92.80
2018-07-25T12:25:00.024Z,93.40
2018-07-25T12:27:27.522Z,92.40
2018-07-25T12:29:54.901Z,92.90
2018-07-25T12:32:22.275Z,94.00
2018-07-25T12:34:51.054Z,94.40
2018-07-25T12:37:18.374Z,94.60
2018-07-25T12:39:45.709Z,94.60
2018-07-25T12:42:13.065Z,94.70
2018-07-25T12:44:40.962Z,94.60
2018-07-25T12:47:08.332Z,95.60
2018-07-25T12:49:35.681Z,96.30
2018-07-25T12:52:03.159Z,96.50
2018-07-25T12:54:30.717Z,96.40
2018-07-25T12:56:58.121Z,96.70
2018-07-25T12:59:25.505Z,97.00
2018-07-25T13:01:53.182Z,96.90
2018-07-25T13:04:20.718Z,96.40
2018-07-25T13:06:48.221Z,96.80
2018-07-25T13:09:15.797Z,96.70
2018-07-25T13:11:43.188Z,97.00
2018-07-25T13:14:11.177Z,96.30
2018-07-25T14:38:36.026Z,96.50
2018-07-25T14:41:04.408Z,93.70
2018-07-25T14:43:32.494Z,93.30
2018-07-25T14:45:59.905Z,93.80
2018-07-25T14:48:27.246Z,93.80
2018-07-25T14:50:54.857Z,93.70
2018-07-25T14:53:22.243Z,93.00
2018-07-25T14:55:49.778Z,93.70
2018-07-25T14:58:17.251Z,92.80
2018-07-25T15:00:44.701Z,93.20
2018-07-25T15:03:12.306Z,92.80
2018-07-25T15:05:39.696Z,92.10
2018-07-25T15:08:07.123Z,91.30
2018-07-25T15:10:34.659Z,92.10
2018-07-25T15:13:02.179Z,90.80
2018-07-25T15:15:30.066Z,91.60
2018-07-25T15:17:57.434Z,91.90
2018-07-25T15:20:24.905Z,92.40
2018-07-25T15:22:52.394Z,91.90
2018-07-25T15:25:19.752Z,91.80
2018-07-25T15:27:47.307Z,92.50
2018-07-25T15:30:14.751Z,93.40
2018-07-25T15:32:42.139Z,93.10
2018-07-25T15:35:10.299Z,92.80
2018-07-25T15:40:06.001Z,92.00
2018-07-25T15:45:07.667Z,93.20
2018-07-25T15:47:35.114Z,93.10
2018-07-25T15:50:02.550Z,93.40
2018-07-25T15:52:30.004Z,93.10
2018-07-25T15:54:57.621Z,93.10
2018-07-25T15:57:25.209Z,93.20
2018-07-25T15:59:52.672Z,93.50
2018-07-25T16:02:20.230Z,93.40
2018-07-25T16:04:47.745Z,93.70
2018-07-25T16:07:15.229Z,95.00
2018-07-25T16:09:42.661Z,94.40
2018-07-25T16:12:10.093Z,94.50
2018-07-25T16:14:37.557Z,94.30
2018-07-25T16:17:04.969Z,94.10
2018-07-25T16:19:32.438Z,94.50
2018-07-25T16:21:59.919Z,94.40
2018-07-25T16:24:27.454Z,94.80
2018-07-25T16:26:54.842Z,94.70
2018-07-25T16:29:22.338Z,95.50
2018-07-25T16:31:50.298Z,95.50
2018-07-25T16:34:18.784Z,95.10
2018-07-25T16:36:46.569Z,95.20
2018-07-25T16:39:15.413Z,96.00
2018-07-25T16:41:42.869Z,96.00
2018-07-25T16:44:10.519Z,96.50
2018-07-25T16:46:39.057Z,96.80
2018-07-25T16:49:06.633Z,96.50
2018-07-25T16:58:56.717Z,96.40
2018-07-25T17:01:24.603Z,96.40
2018-07-25T17:03:52.083Z,96.30
2018-07-25T17:06:19.501Z,96.40
2018-07-25T17:08:47.026Z,96.50
2018-07-25T17:11:14.453Z,96.40
2018-07-25T17:13:41.884Z,96.50
2018-07-25T17:16:09.433Z,96.40
2018-07-25T17:18:36.795Z,96.70
2018-07-25T17:21:04.211Z,96.80
2018-07-25T17:23:31.742Z,96.70
2018-07-25T17:25:59.435Z,96.80
2018-07-25T17:28:26.785Z,97.10
2018-07-25T17:33:21.450Z,97.20
2018-07-25T17:35:48.953Z,97.30
2018-07-25T17:38:16.783Z,97.70
2018-07-25T17:40:44.356Z,97.20
2018-07-25T17:48:06.480Z,98.20
2018-07-25T17:50:33.860Z,98.10
2018-07-25T17:53:01.524Z,97.70
2018-07-25T17:55:29.441Z,97.50
2018-07-25T17:57:57.305Z,97.80
2018-07-25T18:00:24.734Z,97.60
2018-07-25T18:02:59.193Z,97.90
2018-07-25T18:05:26.799Z,97.80
2018-07-25T18:07:54.209Z,98.40
2018-07-25T18:10:21.613Z,98.40
2018-07-25T18:12:49.507Z,98.10
2018-07-25T18:15:16.902Z,98.20
2018-07-25T18:17:44.466Z,97.70
2018-07-25T18:20:12.078Z,98.30
2018-07-25T18:22:39.478Z,98.80
2018-07-25T18:25:06.911Z,98.10
2018-07-25T18:27:34.557Z,98.20
2018-07-25T18:30:01.971Z,98.30
2018-07-25T18:32:29.570Z,98.40
2018-07-25T18:34:57.129Z,98.90
2018-07-25T18:37:24.732Z,98.60
2018-07-25T18:39:52.086Z,99.40
2018-07-25T18:42:19.530Z,99.10
2018-07-25T18:44:47.075Z,99.00
2018-07-25T18:47:14.480Z,99.40
2018-07-25T18:49:41.858Z,99.20
2018-07-25T18:52:09.535Z,99.20
2018-07-25T18:54:37.012Z,98.90
2018-07-25T18:57:05.102Z,99.10
2018-07-25T18:59:32.522Z,98.90
2018-07-25T19:01:59.897Z,99.10
2018-07-25T19:07:01.679Z,98.90
2018-07-25T19:09:29.085Z,99.20
2018-07-25T19:11:56.616Z,99.00
2018-07-25T19:14:29.843Z,99.60
2018-07-25T19:16:57.312Z,99.90
2018-07-25T19:19:33.554Z,99.40
2018-07-25T19:24:46.958Z,99.60
2018-07-25T19:27:17.265Z,99.90
2018-07-25T19:29:51.319Z,99.50
2018-07-25T19:32:19.794Z,99.20
2018-07-25T19:34:50.114Z,99.90
2018-07-25T19:37:17.732Z,99.90
2018-07-25T19:39:45.617Z,99.90
2018-07-25T19:42:13.052Z,99.90
2018-07-25T19:44:40.491Z,99.90
2018-07-25T19:47:08.299Z,99.90
2018-07-25T19:49:35.915Z,99.90
2018-07-25T19:52:03.414Z,99.90
2018-07-25T19:54:31.206Z,99.90
2018-07-25T19:56:58.865Z,99.90
2018-07-25T19:59:26.558Z,99.90
2018-07-25T20:01:53.926Z,99.90
2018-07-25T21:25:29.719Z,99.90
2018-07-25T21:27:59.465Z,99.90
2018-07-25T21:30:27.106Z,99.90
2018-07-25T21:32:54.658Z,99.90
2018-07-25T21:35:22.594Z,99.90
2018-07-25T21:37:50.432Z,99.90
2018-07-25T21:40:18.778Z,99.90
2018-07-25T21:42:46.267Z,99.90
2018-07-25T21:45:14.366Z,99.90
2018-07-25T21:47:41.882Z,99.90
2018-07-25T21:50:09.498Z,99.90
2018-07-25T21:55:05.022Z,99.90
2018-07-25T21:57:32.668Z,99.90
2018-07-25T22:00:00.166Z,99.90
2018-07-25T22:02:28.431Z,99.90
2018-07-25T22:04:56.133Z,99.90
2018-07-25T22:07:23.523Z,99.90
2018-07-25T22:09:51.584Z,99.90
2018-07-25T22:12:19.117Z,99.90
2018-07-25T22:14:46.600Z,99.90
2018-07-25T22:17:14.048Z,99.90
2018-07-25T22:19:42.276Z,99.90
2018-07-25T22:22:09.764Z,99.90
2018-07-25T22:24:37.362Z,99.90
2018-07-25T22:27:04.886Z,99.90
2018-07-25T22:29:32.534Z,99.90
2018-07-25T22:32:00.149Z,99.90
2018-07-25T22:34:27.973Z,99.90
2018-07-25T22:36:55.851Z,99.90
2018-07-25T22:39:23.475Z,99.90
2018-07-25T22:41:51.038Z,99.90
2018-07-25T22:44:18.719Z,99.90
2018-07-25T22:49:14.638Z,99.90
2018-07-25T22:51:42.254Z,99.90
2018-07-25T22:54:09.790Z,99.90
2018-07-25T22:56:37.727Z,99.90
2018-07-25T22:59:05.325Z,99.90
2018-07-25T23:01:32.946Z,99.90
2018-07-25T23:04:00.654Z,99.90
2018-07-25T23:06:28.710Z,99.90
2018-07-25T23:08:56.231Z,99.90
2018-07-25T23:11:23.883Z,99.90
2018-07-25T23:13:51.411Z,99.90
2018-07-25T23:16:19.030Z,99.90
2018-07-25T23:18:46.834Z,99.90
2018-07-25T23:21:14.299Z,99.90
2018-07-25T23:23:41.935Z,99.90
2018-07-25T23:26:09.531Z,99.90
2018-07-25T23:28:37.510Z,99.90
2018-07-25T23:31:05.098Z,99.90
2018-07-25T23:33:32.563Z,99.90
2018-07-25T23:36:00.115Z,99.90
2018-07-25T23:38:27.794Z,99.90
2018-07-25T23:40:55.310Z,99.90
2018-07-25T23:43:22.754Z,99.90
2018-07-25T23:45:50.230Z,99.90
2018-07-25T23:48:17.866Z,99.90
2018-07-25T23:50:45.349Z,99.90
2018-07-25T23:53:12.981Z,99.90
2018-07-25T23:55:40.819Z,99.90
2018-07-25T23:58:08.334Z,99.90
